Time;durP1;ratioP1;P1;durP2;ratioP2;P2;SDS_P1;SDS_P2;PMS_P1;PMS_P2;Temp;Humidity;BMP_temperature;BMP_pressure;BME280_temperature;BME280_humidity;BME280_pressure;Samples;Min_cycle;Max_cycle;Signal;HPM_P1;HPM_P2
2021/01/07 00:00:17;;;;;;;15.17;9.40;;;3.90;99.90;;;;;;4206940;28;21169;-50
2021/01/07 00:02:19;;;;;;;15.50;8.73;;;4.00;99.90;;;;;;4208666;28;20659;-38
2021/01/07 00:04:20;;;;;;;18.50;9.70;;;4.00;99.90;;;;;;4206690;28;20326;-38
2021/01/07 00:06:21;;;;;;;17.20;9.23;;;4.00;99.90;;;;;;4208626;28;20676;-39
2021/01/07 00:08:22;;;;;;;17.17;9.90;;;4.00;99.90;;;;;;4207061;28;20295;-45
2021/01/07 00:10:23;;;;;;;16.07;9.30;;;3.90;99.90;;;;;;4208197;28;20265;-37
2021/01/07 00:12:24;;;;;;;16.53;9.20;;;3.90;99.90;;;;;;4208468;28;20400;-37
2021/01/07 00:14:26;;;;;;;14.23;8.30;;;3.90;99.90;;;;;;4207285;28;20342;-51
2021/01/07 00:16:27;;;;;;;14.17;8.77;;;4.00;99.90;;;;;;4206570;28;20704;-37
2021/01/07 00:18:28;;;;;;;14.93;8.67;;;4.00;99.90;;;;;;4206700;28;20775;-41
2021/01/07 00:20:30;;;;;;;15.90;9.03;;;4.00;99.90;;;;;;4207407;28;20318;-49
2021/01/07 00:22:31;;;;;;;14.47;9.10;;;4.00;99.90;;;;;;4206755;28;20329;-42
2021/01/07 00:24:32;;;;;;;13.10;7.87;;;4.10;99.90;;;;;;4208097;28;20306;-38
2021/01/07 00:26:34;;;;;;;14.63;8.40;;;4.00;99.90;;;;;;4206374;28;20335;-38
2021/01/07 00:28:35;;;;;;;16.07;8.87;;;4.00;99.90;;;;;;4207662;28;20345;-36
2021/01/07 00:30:36;;;;;;;12.90;8.63;;;4.00;99.90;;;;;;4206676;28;20310;-37
2021/01/07 00:32:37;;;;;;;13.70;8.67;;;4.00;99.90;;;;;;4207211;28;20249;-37
2021/01/07 00:34:38;;;;;;;12.53;8.03;;;4.00;99.90;;;;;;4206382;28;20268;-39
2021/01/07 00:36:39;;;;;;;13.70;7.90;;;4.00;99.90;;;;;;4207617;28;20301;-42
2021/01/07 00:38:40;;;;;;;13.97;8.07;;;4.10;99.90;;;;;;4206189;28;20273;-37
2021/01/07 00:40:42;;;;;;;18.40;8.43;;;4.10;99.90;;;;;;4207144;28;20264;-40
2021/01/07 00:42:43;;;;;;;13.37;8.10;;;4.10;99.90;;;;;;4206752;28;20655;-44
2021/01/07 00:44:45;;;;;;;13.50;8.30;;;4.10;99.90;;;;;;4207381;28;20325;-38
2021/01/07 00:46:46;;;;;;;13.20;8.17;;;4.10;99.90;;;;;;4206983;28;20257;-37
2021/01/07 00:48:47;;;;;;;17.77;9.40;;;4.00;99.90;;;;;;4207221;28;20272;-46
2021/01/07 00:50:48;;;;;;;15.80;9.27;;;4.00;99.90;;;;;;4207270;28;20294;-37
2021/01/07 00:52:50;;;;;;;17.27;10.13;;;4.00;99.90;;;;;;4206358;28;20671;-39
2021/01/07 00:54:51;;;;;;;16.40;9.27;;;4.00;99.90;;;;;;4207476;28;20273;-40
2021/01/07 00:56:52;;;;;;;16.83;10.20;;;4.00;99.90;;;;;;4206216;28;20301;-37
2021/01/07 00:58:53;;;;;;;14.80;9.00;;;4.00;99.90;;;;;;4207746;28;20717;-40
2021/01/07 01:00:54;;;;;;;22.33;11.03;;;4.00;99.90;;;;;;4206351;28;20269;-39
2021/01/07 01:02:55;;;;;;;16.07;9.73;;;4.00;99.90;;;;;;4207718;28;20277;-38
2021/01/07 01:04:56;;;;;;;15.23;9.60;;;4.00;99.90;;;;;;4206696;28;20280;-37
2021/01/07 01:06:58;;;;;;;16.07;9.80;;;3.90;99.90;;;;;;4207664;28;20318;-37
2021/01/07 01:08:59;;;;;;;16.67;9.83;;;4.00;99.90;;;;;;4206202;28;20265;-38
2021/01/07 01:11:00;;;;;;;16.03;9.73;;;4.00;99.90;;;;;;4207176;28;20397;-44
2021/01/07 01:13:01;;;;;;;18.23;10.03;;;4.00;99.90;;;;;;4206703;28;20288;-38
2021/01/07 01:15:06;;;;;;;17.33;8.73;;;4.00;99.90;;;;;;4207293;28;20273;-37
2021/01/07 01:17:07;;;;;;;16.53;9.73;;;4.00;99.90;;;;;;4206828;28;20314;-38
2021/01/07 01:19:08;;;;;;;26.87;10.53;;;4.00;99.90;;;;;;4206426;28;20284;-38
2021/01/07 01:21:10;;;;;;;16.63;9.77;;;4.10;99.90;;;;;;4206907;28;20315;-38
2021/01/07 01:23:11;;;;;;;16.10;10.23;;;4.10;99.90;;;;;;4205978;28;20999;-39
2021/01/07 01:25:13;;;;;;;16.70;8.90;;;4.00;99.90;;;;;;4205652;28;20360;-38
2021/01/07 01:27:14;;;;;;;16.37;9.57;;;4.10;99.90;;;;;;4207090;28;20268;-44
2021/01/07 01:29:16;;;;;;;16.23;9.67;;;4.00;99.90;;;;;;4210633;28;20345;-38
2021/01/07 01:31:17;;;;;;;14.53;8.20;;;4.00;99.90;;;;;;4208963;28;20330;-37
2021/01/07 01:33:18;;;;;;;15.77;9.13;;;4.00;99.90;;;;;;4210290;28;20269;-38
2021/01/07 01:35:19;;;;;;;15.40;9.43;;;4.00;99.90;;;;;;4209557;28;20342;-38
2021/01/07 01:37:20;;;;;;;18.00;10.33;;;4.00;99.90;;;;;;4210977;28;20761;-37
2021/01/07 01:39:21;;;;;;;18.20;10.00;;;4.00;99.90;;;;;;4209228;28;20261;-37
2021/01/07 01:41:22;;;;;;;20.43;9.93;;;4.00;99.90;;;;;;4209207;28;20273;-38
2021/01/07 01:43:23;;;;;;;16.27;10.73;;;4.10;99.90;;;;;;4209948;28;20298;-41
2021/01/07 01:45:25;;;;;;;15.53;9.00;;;4.00;99.90;;;;;;4210154;28;20330;-40
2021/01/07 01:47:26;;;;;;;17.30;10.00;;;4.00;99.90;;;;;;4209686;28;20757;-39
2021/01/07 01:49:27;;;;;;;19.60;10.43;;;4.00;99.90;;;;;;4209526;28;20318;-38
2021/01/07 01:51:32;;;;;;;18.83;10.30;;;4.00;99.90;;;;;;4209738;28;20261;-39
2021/01/07 01:53:34;;;;;;;21.63;9.83;;;4.00;99.90;;;;;;4209555;28;20272;-41
2021/01/07 01:55:35;;;;;;;14.40;9.17;;;4.00;99.90;;;;;;4209336;28;20338;-37
2021/01/07 01:57:38;;;;;;;17.40;9.83;;;4.00;99.90;;;;;;4208587;28;20836;-38
2021/01/07 01:59:40;;;;;;;15.17;9.47;;;4.00;99.90;;;;;;4210308;28;20302;-37
2021/01/07 02:01:41;;;;;;;18.47;10.63;;;4.00;99.90;;;;;;4208958;28;20256;-37
2021/01/07 02:03:42;;;;;;;16.40;9.50;;;4.10;99.90;;;;;;4210113;28;20264;-37
2021/01/07 02:05:43;;;;;;;17.20;10.63;;;4.10;99.90;;;;;;4208441;28;21043;-37
2021/01/07 02:07:46;;;;;;;16.73;9.37;;;4.10;99.90;;;;;;4210190;28;20349;-37
2021/01/07 02:09:48;;;;;;;16.17;10.00;;;4.10;99.90;;;;;;4208539;28;20667;-37
2021/01/07 02:11:50;;;;;;;17.33;9.40;;;4.10;99.90;;;;;;4209647;28;20342;-41
2021/01/07 02:13:51;;;;;;;16.37;9.73;;;4.10;99.90;;;;;;4209153;28;20609;-42
2021/01/07 02:15:52;;;;;;;15.50;9.87;;;4.10;99.90;;;;;;4209777;28;20338;-39
2021/01/07 02:17:56;;;;;;;19.20;10.60;;;4.10;99.90;;;;;;4208453;28;20297;-38
2021/01/07 02:19:58;;;;;;;18.83;10.93;;;4.00;99.90;;;;;;4209440;28;20268;-40
2021/01/07 02:22:00;;;;;;;18.93;11.70;;;4.10;99.90;;;;;;4208927;28;20412;-38
2021/01/07 02:24:01;;;;;;;19.43;11.63;;;4.10;99.90;;;;;;4209317;28;20342;-38
2021/01/07 02:26:02;;;;;;;16.60;10.30;;;4.10;99.90;;;;;;4209141;28;20338;-38
2021/01/07 02:28:04;;;;;;;17.33;10.47;;;4.10;99.90;;;;;;4208408;28;20261;-41
2021/01/07 02:30:06;;;;;;;19.63;10.40;;;4.20;99.90;;;;;;4209326;28;20272;-48
2021/01/07 02:32:08;;;;;;;18.57;10.80;;;4.20;99.90;;;;;;4208409;28;20268;-37
2021/01/07 02:34:09;;;;;;;19.17;11.23;;;4.20;99.90;;;;;;4209944;28;20342;-37
2021/01/07 02:36:11;;;;;;;18.47;10.47;;;4.20;99.90;;;;;;4207982;28;20277;-39
2021/01/07 02:38:12;;;;;;;17.30;11.27;;;4.20;99.90;;;;;;4209030;28;20350;-38
2021/01/07 02:40:14;;;;;;;17.20;10.87;;;4.20;99.90;;;;;;4207341;28;20277;-37
2021/01/07 02:42:15;;;;;;;18.80;11.63;;;4.20;99.90;;;;;;4209778;28;20269;-41
2021/01/07 02:44:16;;;;;;;18.13;11.07;;;4.20;99.90;;;;;;4207002;28;20726;-38
2021/01/07 02:46:17;;;;;;;19.00;10.03;;;4.20;99.90;;;;;;4209239;28;20798;-38
2021/01/07 02:48:18;;;;;;;19.27;11.07;;;4.20;99.90;;;;;;4207929;28;20752;-39
2021/01/07 02:50:19;;;;;;;16.53;10.03;;;4.20;99.90;;;;;;4209163;28;20277;-39
2021/01/07 02:52:20;;;;;;;16.57;9.80;;;4.20;99.90;;;;;;4208602;28;20265;-39
2021/01/07 02:54:21;;;;;;;15.70;9.73;;;4.20;99.90;;;;;;4208601;28;20312;-41
2021/01/07 02:56:22;;;;;;;18.23;10.67;;;4.20;99.90;;;;;;4208233;28;20804;-37
2021/01/07 02:58:24;;;;;;;18.83;10.43;;;4.20;99.90;;;;;;4208153;28;20285;-59
2021/01/07 03:00:25;;;;;;;17.60;10.47;;;4.20;99.90;;;;;;4209142;28;20261;-37
2021/01/07 03:02:26;;;;;;;17.67;11.03;;;4.20;99.90;;;;;;4206560;28;20245;-39
2021/01/07 03:04:27;;;;;;;20.53;12.00;;;4.20;99.90;;;;;;4208800;28;21405;-38
2021/01/07 03:06:28;;;;;;;20.00;12.10;;;4.20;99.90;;;;;;4207465;28;20655;-39
2021/01/07 03:08:29;;;;;;;20.77;12.47;;;4.20;99.90;;;;;;4208945;28;20265;-39
2021/01/07 03:10:32;;;;;;;20.83;12.40;;;4.20;99.90;;;;;;4207920;28;20736;-39
2021/01/07 03:12:33;;;;;;;24.23;13.63;;;4.20;99.90;;;;;;4209252;28;20261;-38
2021/01/07 03:14:34;;;;;;;23.53;13.40;;;4.20;99.90;;;;;;4207680;28;20733;-40
2021/01/07 03:16:35;;;;;;;25.80;14.17;;;4.20;99.90;;;;;;4208878;28;20260;-39
2021/01/07 03:18:36;;;;;;;22.23;12.93;;;4.20;99.90;;;;;;4207447;28;20292;-38
2021/01/07 03:20:37;;;;;;;23.77;13.60;;;4.20;99.90;;;;;;4208366;28;20289;-39
2021/01/07 03:22:40;;;;;;;23.73;14.60;;;4.20;99.90;;;;;;4208279;28;20264;-43
2021/01/07 03:24:41;;;;;;;27.23;15.33;;;4.20;99.90;;;;;;4208771;28;20269;-38
2021/01/07 03:26:42;;;;;;;23.63;14.77;;;4.20;99.90;;;;;;4207975;28;20253;-40
2021/01/07 03:28:43;;;;;;;22.80;13.57;;;4.20;99.90;;;;;;4208121;28;20268;-42
2021/01/07 03:30:45;;;;;;;21.30;13.43;;;4.20;99.90;;;;;;4208050;28;20311;-40
2021/01/07 03:32:46;;;;;;;24.10;13.77;;;4.20;99.90;;;;;;4207196;28;20330;-39
2021/01/07 03:34:47;;;;;;;25.97;15.00;;;4.20;99.90;;;;;;4208256;28;20365;-37
2021/01/07 03:36:48;;;;;;;24.80;13.50;;;4.20;99.90;;;;;;4207373;28;20332;-38
2021/01/07 03:38:50;;;;;;;22.40;13.30;;;4.20;99.90;;;;;;4208767;28;20679;-38
2021/01/07 03:40:52;;;;;;;24.07;14.00;;;4.20;99.90;;;;;;4207013;28;20314;-39
2021/01/07 03:42:53;;;;;;;24.13;13.53;;;4.20;99.90;;;;;;4208934;28;20272;-38
2021/01/07 03:44:54;;;;;;;19.80;13.07;;;4.20;99.90;;;;;;4207222;28;20277;-48
2021/01/07 03:46:55;;;;;;;24.33;14.97;;;4.20;99.90;;;;;;4208467;28;20783;-38
2021/01/07 03:48:57;;;;;;;23.03;13.40;;;4.30;99.90;;;;;;4207415;28;20296;-52
2021/01/07 03:50:58;;;;;;;23.27;13.43;;;4.20;99.90;;;;;;4207261;28;20272;-38
2021/01/07 03:52:59;;;;;;;19.43;12.07;;;4.20;99.90;;;;;;4207762;28;20314;-38
2021/01/07 03:55:00;;;;;;;23.53;13.60;;;4.20;99.90;;;;;;4207737;28;20272;-46
2021/01/07 03:57:01;;;;;;;20.83;12.10;;;4.30;99.90;;;;;;4207598;28;20317;-42
2021/01/07 03:59:02;;;;;;;21.60;12.53;;;4.30;99.90;;;;;;4207560;28;20333;-40
2021/01/07 04:01:03;;;;;;;20.53;13.00;;;4.20;99.90;;;;;;4207521;28;20249;-39
2021/01/07 04:03:04;;;;;;;24.00;13.83;;;4.20;99.90;;;;;;4206924;28;20306;-39
2021/01/07 04:05:07;;;;;;;22.20;12.90;;;4.20;99.90;;;;;;4208265;28;20843;-41
2021/01/07 04:07:08;;;;;;;22.03;13.97;;;4.20;99.90;;;;;;4206476;28;20281;-41
2021/01/07 04:09:10;;;;;;;24.53;12.77;;;4.20;99.90;;;;;;4208268;28;20272;-39
2021/01/07 04:11:11;;;;;;;19.83;12.33;;;4.20;99.90;;;;;;4206574;28;20288;-38
2021/01/07 04:13:12;;;;;;;15.90;10.43;;;4.20;99.90;;;;;;4208367;28;20276;-44
2021/01/07 04:15:15;;;;;;;26.33;12.70;;;4.30;99.90;;;;;;4206876;28;20253;-38
2021/01/07 04:17:16;;;;;;;20.87;12.80;;;4.20;99.90;;;;;;4207937;28;20276;-38
2021/01/07 04:19:17;;;;;;;22.53;13.50;;;4.20;99.90;;;;;;4205423;28;20273;-38
2021/01/07 04:21:19;;;;;;;22.23;13.37;;;4.20;99.90;;;;;;4207800;28;20740;-37
2021/01/07 04:23:20;;;;;;;22.53;12.97;;;4.10;99.90;;;;;;4206662;28;20265;-38
2021/01/07 04:25:21;;;;;;;22.50;13.57;;;4.10;99.90;;;;;;4207786;28;20810;-39
2021/01/07 04:27:22;;;;;;;23.27;14.87;;;4.10;99.90;;;;;;4207061;28;20257;-38
2021/01/07 04:29:23;;;;;;;22.70;13.47;;;4.10;99.90;;;;;;4207321;28;20322;-39
2021/01/07 04:31:24;;;;;;;23.90;12.23;;;4.10;99.90;;;;;;4207282;28;20325;-38
2021/01/07 04:33:26;;;;;;;21.03;12.20;;;4.10;99.90;;;;;;4207099;28;20265;-38
2021/01/07 04:35:27;;;;;;;20.70;12.00;;;4.00;99.90;;;;;;4207181;28;20269;-47
2021/01/07 04:37:28;;;;;;;16.03;9.83;;;4.00;99.90;;;;;;4206428;28;20798;-38
2021/01/07 04:39:29;;;;;;;18.00;10.23;;;4.00;99.90;;;;;;4207556;28;20276;-38
2021/01/07 04:41:30;;;;;;;17.23;9.83;;;4.00;99.90;;;;;;4206302;28;20270;-38
2021/01/07 04:43:31;;;;;;;16.87;9.73;;;4.00;99.90;;;;;;4207955;28;20269;-38
2021/01/07 04:45:32;;;;;;;18.17;9.90;;;3.90;99.90;;;;;;4206440;28;20322;-41
2021/01/07 04:47:35;;;;;;;18.53;10.57;;;3.90;99.90;;;;;;4208103;28;20325;-37
2021/01/07 04:49:36;;;;;;;19.03;10.07;;;3.90;99.90;;;;;;4206249;28;20340;-37
2021/01/07 04:51:38;;;;;;;16.97;9.63;;;3.90;99.90;;;;;;4207737;28;20272;-45
2021/01/07 04:53:39;;;;;;;15.23;8.90;;;3.90;99.90;;;;;;4205950;28;20302;-48
2021/01/07 04:55:41;;;;;;;15.33;9.40;;;3.90;99.90;;;;;;4206588;28;20261;-37
2021/01/07 04:57:42;;;;;;;15.83;9.13;;;3.90;99.90;;;;;;4206123;28;21052;-47
2021/01/07 04:59:43;;;;;;;16.37;9.73;;;3.90;99.90;;;;;;4206658;28;20413;-50
2021/01/07 05:01:46;;;;;;;13.73;7.90;;;3.90;99.90;;;;;;4205706;28;20265;-37
2021/01/07 05:03:47;;;;;;;15.17;8.93;;;3.90;99.90;;;;;;4205627;28;20325;-40
2021/01/07 05:05:50;;;;;;;16.97;8.87;;;3.90;99.90;;;;;;4207298;28;20342;-38
2021/01/07 05:07:53;;;;;;;16.57;9.17;;;3.90;99.90;;;;;;4205990;28;20268;-46
2021/01/07 05:10:00;;;;;;;16.63;9.43;;;3.90;99.90;;;;;;4206778;28;20688;-39
2021/01/07 05:12:02;;;;;;;14.47;7.77;;;3.90;99.90;;;;;;4206189;28;20265;-44
2021/01/07 05:14:09;;;;;;;14.90;8.20;;;3.90;99.90;;;;;;4206878;28;20296;-38
2021/01/07 05:16:20;;;;;;;12.40;7.33;;;3.90;99.90;;;;;;4205929;28;20346;-38
2021/01/07 05:18:21;;;;;;;11.73;6.40;;;3.90;99.90;;;;;;4206684;28;20292;-38
2021/01/07 05:20:22;;;;;;;11.80;7.03;;;3.90;99.90;;;;;;4205550;28;20313;-39
2021/01/07 05:22:35;;;;;;;12.20;6.93;;;3.90;99.90;;;;;;4206888;28;20353;-38
2021/01/07 05:24:40;;;;;;;12.10;6.37;;;3.90;99.90;;;;;;4205683;28;20341;-37
2021/01/07 05:26:41;;;;;;;11.63;7.30;;;4.00;99.90;;;;;;4206919;28;20276;-45
2021/01/07 05:28:43;;;;;;;9.03;5.80;;;4.00;99.90;;;;;;4204764;28;20273;-39
2021/01/07 05:30:44;;;;;;;11.93;6.07;;;4.00;99.90;;;;;;4205166;28;21215;-37
2021/01/07 05:32:45;;;;;;;11.83;6.43;;;4.00;99.90;;;;;;4205512;28;20917;-50
2021/01/07 05:34:48;;;;;;;12.70;6.90;;;4.00;99.90;;;;;;4206855;28;20314;-38
2021/01/07 05:36:49;;;;;;;10.20;6.57;;;4.00;99.90;;;;;;4205530;28;20294;-42
2021/01/07 05:38:51;;;;;;;10.03;6.10;;;4.10;99.90;;;;;;4206518;28;20357;-40
2021/01/07 05:40:52;;;;;;;11.97;6.57;;;4.10;99.90;;;;;;4205947;28;20260;-39
2021/01/07 05:43:01;;;;;;;11.17;6.33;;;4.00;99.90;;;;;;4206610;28;20261;-38
2021/01/07 05:45:05;;;;;;;13.33;6.73;;;4.00;99.90;;;;;;4206158;28;20290;-39
2021/01/07 05:47:07;;;;;;;8.40;5.73;;;4.00;99.90;;;;;;4205323;28;20273;-38
2021/01/07 05:49:08;;;;;;;14.77;8.30;;;4.00;99.90;;;;;;4206574;28;20354;-48
2021/01/07 05:51:11;;;;;;;23.37;13.03;;;4.00;99.90;;;;;;4205893;28;20265;-44
2021/01/07 05:53:12;;;;;;;12.80;7.17;;;4.00;99.90;;;;;;4207032;28;20740;-43
2021/01/07 05:55:18;;;;;;;22.20;11.57;;;4.00;99.90;;;;;;4205825;28;20342;-37
2021/01/07 05:57:19;;;;;;;20.73;10.47;;;4.00;99.90;;;;;;4206965;28;20664;-44
2021/01/07 05:59:21;;;;;;;16.33;8.83;;;4.00;99.90;;;;;;4205419;28;20825;-37
2021/01/07 06:01:23;;;;;;;13.87;8.40;;;4.00;99.90;;;;;;4205899;28;21086;-43
2021/01/07 06:03:25;;;;;;;13.37;9.10;;;3.90;99.90;;;;;;4205367;28;20273;-38
2021/01/07 06:05:27;;;;;;;15.13;8.70;;;3.90;99.90;;;;;;4206542;28;20304;-37
2021/01/07 06:07:28;;;;;;;16.83;10.33;;;3.90;99.90;;;;;;4205226;28;20265;-38
2021/01/07 06:09:30;;;;;;;15.23;9.40;;;3.90;99.90;;;;;;4206828;28;20656;-37
2021/01/07 06:11:34;;;;;;;18.33;10.13;;;3.80;99.90;;;;;;4205149;28;20265;-37
2021/01/07 06:13:35;;;;;;;16.37;9.53;;;3.80;99.90;;;;;;4206000;28;20622;-40
2021/01/07 06:15:37;;;;;;;18.87;10.70;;;3.80;99.90;;;;;;4208608;28;20345;-37
2021/01/07 06:17:39;;;;;;;17.23;10.10;;;3.80;99.90;;;;;;4208384;28;20329;-37
2021/01/07 06:19:44;;;;;;;16.60;9.47;;;3.80;99.90;;;;;;4208370;28;20289;-36
2021/01/07 06:21:48;;;;;;;16.70;9.60;;;3.80;99.90;;;;;;4208728;28;20345;-38
2021/01/07 06:23:49;;;;;;;15.33;9.70;;;3.80;99.90;;;;;;4208720;28;20249;-44
2021/01/07 06:26:26;;;;;;;15.63;9.90;;;3.80;99.90;;;;;;4208493;28;20809;-49
2021/01/07 06:28:27;;;;;;;17.07;10.07;;;3.80;99.90;;;;;;4208787;28;20280;-37
2021/01/07 06:30:28;;;;;;;18.27;9.97;;;3.90;99.90;;;;;;4208287;28;20265;-38
2021/01/07 06:32:29;;;;;;;17.07;9.97;;;3.90;99.90;;;;;;4208101;28;20272;-41
2021/01/07 06:34:39;;;;;;;14.83;9.13;;;3.90;99.90;;;;;;4207201;28;20277;-38
2021/01/07 06:36:44;;;;;;;14.93;8.63;;;3.90;99.90;;;;;;4209302;28;20273;-38
2021/01/07 06:38:52;;;;;;;15.60;8.83;;;3.90;99.90;;;;;;4207993;28;20285;-44
2021/01/07 06:40:57;;;;;;;14.60;9.20;;;3.90;99.90;;;;;;4208511;28;20273;-36
2021/01/07 06:42:58;;;;;;;14.47;8.80;;;3.90;99.90;;;;;;4208408;28;20756;-40
2021/01/07 06:45:01;;;;;;;12.33;7.43;;;3.90;99.90;;;;;;4209621;28;20369;-39
2021/01/07 06:47:16;;;;;;;12.90;6.73;;;3.90;99.90;;;;;;4207884;28;20269;-37
2021/01/07 06:49:22;;;;;;;15.57;8.83;;;3.90;99.90;;;;;;4209162;28;20272;-38
2021/01/07 06:51:26;;;;;;;17.50;10.20;;;4.00;99.90;;;;;;4207363;28;20314;-38
2021/01/07 06:53:28;;;;;;;17.40;10.40;;;4.00;99.90;;;;;;4209394;28;20269;-38
2021/01/07 06:55:29;;;;;;;15.27;9.47;;;3.90;99.90;;;;;;4207616;28;20671;-38
2021/01/07 06:57:43;;;;;;;11.77;7.23;;;3.90;99.90;;;;;;4208981;28;20814;-41
2021/01/07 06:59:59;;;;;;;11.83;7.07;;;4.00;99.90;;;;;;4207656;28;20280;-57
2021/01/07 07:02:00;;;;;;;9.60;6.20;;;4.00;99.90;;;;;;4206906;28;20642;-38
2021/01/07 07:04:05;;;;;;;9.03;5.47;;;4.00;99.90;;;;;;4206302;28;20614;-41
2021/01/07 07:06:08;;;;;;;8.33;5.00;;;4.00;99.90;;;;;;4207146;28;20713;-37
2021/01/07 07:08:14;;;;;;;23.27;13.13;;;4.00;99.90;;;;;;4199743;28;20269;-35
2021/01/07 07:10:17;;;;;;;41.00;25.13;;;4.00;99.90;;;;;;4203317;28;20278;-35
2021/01/07 07:12:31;;;;;;;301.10;153.13;;;4.00;99.90;;;;;;4198635;28;20628;-35
2021/01/07 07:14:33;;;;;;;189.50;102.23;;;4.00;99.90;;;;;;4198785;28;20297;-36
2021/01/07 07:16:36;;;;;;;152.33;85.60;;;4.10;99.90;;;;;;4198624;23;20330;-36
2021/01/07 07:18:38;;;;;;;122.77;74.53;;;4.10;99.90;;;;;;4178181;28;20427;-34
2021/01/07 07:20:43;;;;;;;86.70;54.97;;;4.10;99.90;;;;;;4171754;28;20351;-35
2021/01/07 07:22:45;;;;;;;46.33;30.03;;;4.10;99.90;;;;;;4174650;28;20282;-37
2021/01/07 07:24:50;;;;;;;24.60;16.20;;;4.10;99.90;;;;;;4174185;28;20278;-36
2021/01/07 07:26:52;;;;;;;23.73;14.13;;;4.10;99.90;;;;;;4161124;28;20263;-40
2021/01/07 07:28:53;;;;;;;20.03;15.03;;;4.10;99.90;;;;;;4174493;28;20328;-42
2021/01/07 07:30:54;;;;;;;16.33;9.23;;;4.10;99.90;;;;;;4173180;28;20328;-36
2021/01/07 07:32:57;;;;;;;20.07;10.07;;;4.10;99.90;;;;;;4171167;28;20266;-34
2021/01/07 07:34:58;;;;;;;21.43;12.07;;;4.10;99.90;;;;;;4174233;28;20443;-37
2021/01/07 07:36:59;;;;;;;21.50;12.00;;;4.20;99.90;;;;;;4173627;28;20676;-37
2021/01/07 07:39:03;;;;;;;28.40;14.80;;;4.20;99.90;;;;;;4171433;28;20302;-37
2021/01/07 07:41:10;;;;;;;28.67;14.77;;;4.20;99.90;;;;;;4173832;28;20423;-37
2021/01/07 07:43:11;;;;;;;24.73;15.43;;;4.30;99.90;;;;;;4175093;28;20274;-36
2021/01/07 07:45:12;;;;;;;29.73;16.53;;;4.30;99.90;;;;;;4173533;28;20262;-39
2021/01/07 07:47:14;;;;;;;28.37;15.40;;;4.30;99.90;;;;;;4184446;28;20295;-50
2021/01/07 07:49:15;;;;;;;25.37;13.37;;;4.30;99.90;;;;;;4185329;28;20350;-37
2021/01/07 07:51:17;;;;;;;36.17;19.07;;;4.30;99.90;;;;;;4179260;28;20719;-35
2021/01/07 07:53:18;;;;;;;21.13;12.20;;;4.40;99.90;;;;;;4191033;28;20265;-42
2021/01/07 07:55:19;;;;;;;26.43;15.10;;;4.40;99.90;;;;;;4187306;28;20258;-50
2021/01/07 07:57:21;;;;;;;57.17;29.17;;;4.40;99.90;;;;;;4174839;28;20702;-49
2021/01/07 07:59:22;;;;;;;119.13;53.60;;;4.50;99.90;;;;;;4173465;28;20348;-44
2021/01/07 08:01:37;;;;;;;74.30;33.00;;;4.80;99.90;;;;;;4175148;28;20273;-36
2021/01/07 08:03:39;;;;;;;32.40;17.97;;;5.30;99.90;;;;;;4172904;28;20335;-37
2021/01/07 08:05:46;;;;;;;23.77;14.00;;;5.60;99.90;;;;;;4174841;28;20274;-39
2021/01/07 08:07:54;;;;;;;24.73;13.03;;;5.90;99.90;;;;;;4173224;28;20083;-42
2021/01/07 08:10:08;;;;;;;23.30;13.40;;;6.00;99.90;;;;;;4174740;28;20090;-49
2021/01/07 08:12:09;;;;;;;31.50;15.03;;;6.10;99.90;;;;;;4173590;28;20037;-38
2021/01/07 08:14:14;;;;;;;24.27;13.40;;;6.40;99.90;;;;;;4174869;28;20475;-38
2021/01/07 08:16:20;;;;;;;28.73;15.83;;;6.90;99.90;;;;;;4173779;28;20029;-36
2021/01/07 08:18:26;;;;;;;23.70;14.47;;;7.40;99.90;;;;;;4190271;28;20048;-48
2021/01/07 08:20:28;;;;;;;21.40;12.80;;;7.50;99.90;;;;;;4190166;28;20024;-36
2021/01/07 08:22:29;;;;;;;21.07;11.67;;;7.60;99.90;;;;;;4184315;28;20082;-54
2021/01/07 08:24:31;;;;;;;18.53;11.63;;;7.60;99.90;;;;;;4173600;28;20033;-48
2021/01/07 08:26:33;;;;;;;26.43;14.50;;;7.40;99.90;;;;;;4174854;28;20440;-41
2021/01/07 08:28:40;;;;;;;29.33;15.97;;;7.50;99.90;;;;;;4175146;28;20470;-49
2021/01/07 08:30:54;;;;;;;32.17;18.57;;;7.80;99.90;;;;;;4181608;28;20166;-47
2021/01/07 08:32:58;;;;;;;19.73;9.37;;;8.20;99.90;;;;;;4188627;28;20039;-46
2021/01/07 08:35:06;;;;;;;12.27;7.57;;;8.50;99.90;;;;;;4186128;28;20511;-38
2021/01/07 08:37:13;;;;;;;12.47;7.07;;;8.80;99.90;;;;;;4172537;28;20086;-39
2021/01/07 08:39:15;;;;;;;12.73;8.23;;;8.70;99.90;;;;;;4174031;28;20079;-45
2021/01/07 08:41:22;;;;;;;12.27;7.73;;;8.60;99.90;;;;;;4171709;28;20436;-37
2021/01/07 08:43:25;;;;;;;10.70;6.37;;;8.70;99.90;;;;;;4162755;28;20094;-39
2021/01/07 08:45:28;;;;;;;12.73;7.33;;;8.60;99.90;;;;;;4173116;28;20471;-38
2021/01/07 08:47:29;;;;;;;9.53;6.73;;;8.50;99.90;;;;;;4175075;28;20033;-37
2021/01/07 08:49:30;;;;;;;11.47;7.07;;;8.30;99.90;;;;;;4173265;28;20048;-52
2021/01/07 08:51:38;;;;;;;12.33;6.43;;;8.30;99.90;;;;;;4172906;28;20091;-37
2021/01/07 08:53:53;;;;;;;8.43;5.93;;;8.10;99.90;;;;;;4173859;28;20566;-37
2021/01/07 08:55:54;;;;;;;11.57;6.03;;;7.90;99.90;;;;;;4172461;28;20041;-36
2021/01/07 08:58:25;;;;;;;8.13;5.87;;;7.70;99.90;;;;;;4172652;28;20040;-34
2021/01/07 09:00:26;;;;;;;;;;;7.40;99.90;;;;;;4171633;28;20723;-35
2021/01/07 09:02:27;;;;;;;7.63;5.53;;;7.40;99.90;;;;;;4172982;28;19909;-44
2021/01/07 09:04:35;;;;;;;8.37;5.67;;;7.30;99.90;;;;;;4172705;28;20087;-36
2021/01/07 09:06:36;;;;;;;8.83;5.50;;;7.20;99.90;;;;;;4173666;28;20087;-36
2021/01/07 09:08:37;;;;;;;7.93;5.27;;;7.10;99.90;;;;;;4172438;28;20029;-37
2021/01/07 09:10:41;;;;;;;8.37;5.20;;;7.10;99.90;;;;;;4173317;28;20327;-35
2021/01/07 09:12:42;;;;;;;7.47;4.73;;;7.10;99.90;;;;;;4174572;28;20739;-44
2021/01/07 09:14:56;;;;;;;6.90;4.80;;;7.20;99.90;;;;;;4174091;28;20028;-41
2021/01/07 09:16:58;;;;;;;6.37;4.03;;;7.10;99.90;;;;;;4172879;28;20041;-37
2021/01/07 09:19:08;;;;;;;5.10;3.40;;;7.00;99.90;;;;;;4176800;28;20048;-45
2021/01/07 09:21:14;;;;;;;6.47;3.70;;;6.90;99.90;;;;;;4185036;28;20045;-54
2021/01/07 09:23:16;;;;;;;5.40;3.63;;;6.90;99.90;;;;;;4173106;28;20048;-37
2021/01/07 09:25:19;;;;;;;5.60;3.83;;;7.00;99.90;;;;;;4171939;28;20040;-35
2021/01/07 09:27:22;;;;;;;8.30;3.87;;;7.00;99.90;;;;;;4173402;28;20483;-36
2021/01/07 09:29:23;;;;;;;6.50;4.63;;;7.00;99.90;;;;;;4172151;28;20090;-36
2021/01/07 09:31:24;;;;;;;5.87;4.30;;;7.00;99.90;;;;;;4171921;28;20037;-35
2021/01/07 09:33:25;;;;;;;7.67;4.87;;;6.90;99.90;;;;;;4172197;28;20041;-35
2021/01/07 09:35:27;;;;;;;6.67;4.57;;;6.80;99.90;;;;;;4171407;28;20037;-35
2021/01/07 09:37:28;;;;;;;7.17;5.10;;;6.80;99.90;;;;;;4170481;28;20079;-37
2021/01/07 09:39:30;;;;;;;17.07;8.43;;;6.90;99.90;;;;;;4171340;28;20053;-36
2021/01/07 09:41:31;;;;;;;8.83;5.73;;;6.90;99.90;;;;;;4172660;28;20070;-37
2021/01/07 09:43:35;;;;;;;9.27;4.33;;;7.00;99.90;;;;;;4172483;28;20142;-35
2021/01/07 09:45:36;;;;;;;6.77;4.17;;;6.80;99.90;;;;;;4173222;28;20515;-42
2021/01/07 09:47:38;;;;;;;7.23;4.60;;;6.70;99.90;;;;;;4171461;28;20054;-39
2021/01/07 09:49:39;;;;;;;8.97;4.53;;;6.50;99.90;;;;;;4175052;28;20095;-35
2021/01/07 09:51:40;;;;;;;6.53;4.10;;;6.40;99.90;;;;;;4175496;28;20037;-35
2021/01/07 09:53:41;;;;;;;7.03;4.17;;;6.30;99.90;;;;;;4176781;28;20370;-35
2021/01/07 09:55:43;;;;;;;5.17;3.57;;;6.20;99.90;;;;;;4175309;28;20041;-45
2021/01/07 09:57:48;;;;;;;6.63;3.70;;;6.10;99.90;;;;;;4176796;28;20033;-35
2021/01/07 09:59:50;;;;;;;11.97;6.50;;;6.00;99.90;;;;;;4175321;28;20037;-39
2021/01/07 10:01:56;;;;;;;14.23;6.77;;;5.80;99.90;;;;;;4174482;28;20055;-36
2021/01/07 10:03:57;;;;;;;13.83;7.27;;;5.70;99.90;;;;;;4174424;28;20455;-33
2021/01/07 10:05:59;;;;;;;11.40;6.10;;;5.70;99.90;;;;;;4175943;28;20086;-44
2021/01/07 10:08:01;;;;;;;11.90;7.07;;;5.60;99.90;;;;;;4176657;28;20377;-35
2021/01/07 10:10:03;;;;;;;9.37;5.97;;;5.70;99.90;;;;;;4175112;28;20955;-41
2021/01/07 10:12:05;;;;;;;11.07;5.97;;;5.70;99.90;;;;;;4175033;28;20082;-35
2021/01/07 10:14:06;;;;;;;8.00;4.77;;;5.70;99.90;;;;;;4174240;28;20732;-34
2021/01/07 10:16:14;;;;;;;9.20;5.90;;;5.70;99.90;;;;;;4174520;28;20036;-36
2021/01/07 10:18:15;;;;;;;12.10;6.10;;;5.70;99.90;;;;;;4175499;28;20091;-40
2021/01/07 10:20:16;;;;;;;18.80;9.33;;;5.80;99.90;;;;;;4174419;28;20048;-47
2021/01/07 10:22:22;;;;;;;13.63;5.50;;;5.80;99.90;;;;;;4174995;28;20049;-41
2021/01/07 10:24:24;;;;;;;14.07;8.37;;;5.80;99.90;;;;;;4175965;28;20133;-34
2021/01/07 10:26:26;;;;;;;10.87;6.37;;;6.00;99.90;;;;;;4179807;28;20603;-37
2021/01/07 10:28:29;;;;;;;9.50;6.50;;;6.00;99.90;;;;;;4190081;28;20040;-37
2021/01/07 10:30:30;;;;;;;7.80;5.20;;;6.10;99.90;;;;;;4188521;28;20078;-37
2021/01/07 10:32:31;;;;;;;8.20;5.47;;;6.20;99.90;;;;;;4179030;28;20041;-33
2021/01/07 10:34:38;;;;;;;5.83;4.07;;;6.20;99.90;;;;;;4174435;28;20036;-44